sensor_id;sensor_type;location;lat;lon;timestamp;P1;durP1;ratioP1;P2;durP2;ratioP2
4500;SDS011;2263;54.654;9.410;2022-10-10T00:01:39;2.90;;;2.13;;
4500;SDS011;2263;54.654;9.410;2022-10-10T00:04:06;2.47;;;1.40;;
4500;SDS011;2263;54.654;9.410;2022-10-10T00:06:34;2.10;;;1.03;;
4500;SDS011;2263;54.654;9.410;2022-10-10T00:09:01;4.07;;;1.60;;
4500;SDS011;2263;54.654;9.410;2022-10-10T00:11:29;6.40;;;1.53;;
4500;SDS011;2263;54.654;9.410;2022-10-10T00:13:57;8.93;;;2.40;;
4500;SDS011;2263;54.654;9.410;2022-10-10T00:16:24;5.03;;;2.30;;
4500;SDS011;2263;54.654;9.410;2022-10-10T00:18:51;3.40;;;2.07;;
4500;SDS011;2263;54.654;9.410;2022-10-10T00:21:19;4.43;;;1.97;;
4500;SDS011;2263;54.654;9.410;2022-10-10T00:23:46;3.33;;;1.70;;
4500;SDS011;2263;54.654;9.410;2022-10-10T00:26:13;5.90;;;2.03;;
4500;SDS011;2263;54.654;9.410;2022-10-10T00:28:44;2.90;;;1.80;;
4500;SDS011;2263;54.654;9.410;2022-10-10T00:31:12;7.00;;;1.87;;
4500;SDS011;2263;54.654;9.410;2022-10-10T00:33:39;8.67;;;1.73;;
4500;SDS011;2263;54.654;9.410;2022-10-10T00:36:06;2.13;;;1.87;;
4500;SDS011;2263;54.654;9.410;2022-10-10T00:38:34;2.40;;;2.20;;
4500;SDS011;2263;54.654;9.410;2022-10-10T00:41:01;5.20;;;1.50;;
4500;SDS011;2263;54.654;9.410;2022-10-10T00:43:29;3.87;;;2.80;;
4500;SDS011;2263;54.654;9.410;2022-10-10T00:45:57;4.93;;;1.67;;
4500;SDS011;2263;54.654;9.410;2022-10-10T00:48:26;1.73;;;1.63;;
4500;SDS011;2263;54.654;9.410;2022-10-10T00:51:03;2.27;;;1.43;;
4500;SDS011;2263;54.654;9.410;2022-10-10T00:53:51;4.37;;;1.83;;
4500;SDS011;2263;54.654;9.410;2022-10-10T00:56:24;2.40;;;1.47;;
4500;SDS011;2263;54.654;9.410;2022-10-10T00:58:55;5.23;;;1.73;;
4500;SDS011;2263;54.654;9.410;2022-10-10T01:01:25;2.10;;;1.23;;
4500;SDS011;2263;54.654;9.410;2022-10-10T01:03:56;5.47;;;1.73;;
4500;SDS011;2263;54.654;9.410;2022-10-10T01:06:24;3.03;;;2.13;;
4500;SDS011;2263;54.654;9.410;2022-10-10T01:08:52;13.90;;;3.13;;
4500;SDS011;2263;54.654;9.410;2022-10-10T01:11:28;3.70;;;1.90;;
4500;SDS011;2263;54.654;9.410;2022-10-10T01:16:45;2.63;;;1.60;;
4500;SDS011;2263;54.654;9.410;2022-10-10T01:19:56;5.60;;;1.53;;
4500;SDS011;2263;54.654;9.410;2022-10-10T01:30:59;2.00;;;1.50;;
4500;SDS011;2263;54.654;9.410;2022-10-10T01:33:27;7.40;;;2.37;;
4500;SDS011;2263;54.654;9.410;2022-10-10T01:36:19;1.70;;;1.13;;
4500;SDS011;2263;54.654;9.410;2022-10-10T01:39:02;4.30;;;1.87;;
4500;SDS011;2263;54.654;9.410;2022-10-10T01:41:40;4.93;;;1.90;;
4500;SDS011;2263;54.654;9.410;2022-10-10T01:44:13;4.47;;;1.90;;
4500;SDS011;2263;54.654;9.410;2022-10-10T01:46:41;6.33;;;1.43;;
4500;SDS011;2263;54.654;9.410;2022-10-10T01:49:08;6.40;;;1.87;;
4500;SDS011;2263;54.654;9.410;2022-10-10T01:51:43;5.10;;;1.50;;
4500;SDS011;2263;54.654;9.410;2022-10-10T02:07:45;5.40;;;1.17;;
4500;SDS011;2263;54.654;9.410;2022-10-10T02:10:19;3.27;;;1.60;;
4500;SDS011;2263;54.654;9.410;2022-10-10T02:12:49;5.23;;;1.67;;
4500;SDS011;2263;54.654;9.410;2022-10-10T02:15:19;4.23;;;1.33;;
4500;SDS011;2263;54.654;9.410;2022-10-10T02:17:49;3.87;;;1.53;;
4500;SDS011;2263;54.654;9.410;2022-10-10T02:20:20;5.53;;;1.60;;
4500;SDS011;2263;54.654;9.410;2022-10-10T02:22:52;3.53;;;1.90;;
4500;SDS011;2263;54.654;9.410;2022-10-10T02:25:22;1.83;;;1.63;;
4500;SDS011;2263;54.654;9.410;2022-10-10T02:30:34;2.30;;;1.73;;
4500;SDS011;2263;54.654;9.410;2022-10-10T02:33:04;3.87;;;1.63;;
4500;SDS011;2263;54.654;9.410;2022-10-10T02:35:34;6.07;;;1.80;;
4500;SDS011;2263;54.654;9.410;2022-10-10T02:38:06;3.50;;;1.83;;
4500;SDS011;2263;54.654;9.410;2022-10-10T02:40:35;2.80;;;1.47;;
4500;SDS011;2263;54.654;9.410;2022-10-10T02:43:05;4.97;;;1.53;;
4500;SDS011;2263;54.654;9.410;2022-10-10T02:45:33;3.10;;;1.43;;
4500;SDS011;2263;54.654;9.410;2022-10-10T02:48:01;4.07;;;3.60;;
4500;SDS011;2263;54.654;9.410;2022-10-10T02:50:29;1.57;;;1.47;;
4500;SDS011;2263;54.654;9.410;2022-10-10T02:52:57;1.63;;;1.20;;
4500;SDS011;2263;54.654;9.410;2022-10-10T02:55:31;3.30;;;1.83;;
4500;SDS011;2263;54.654;9.410;2022-10-10T02:57:58;4.47;;;1.40;;
4500;SDS011;2263;54.654;9.410;2022-10-10T03:00:25;2.10;;;1.90;;
4500;SDS011;2263;54.654;9.410;2022-10-10T03:02:52;3.50;;;1.00;;
4500;SDS011;2263;54.654;9.410;2022-10-10T03:05:20;3.40;;;1.50;;
4500;SDS011;2263;54.654;9.410;2022-10-10T03:07:47;2.93;;;1.90;;
4500;SDS011;2263;54.654;9.410;2022-10-10T03:10:15;2.30;;;1.30;;
4500;SDS011;2263;54.654;9.410;2022-10-10T03:12:42;5.27;;;2.13;;
4500;SDS011;2263;54.654;9.410;2022-10-10T03:15:09;5.77;;;2.17;;
4500;SDS011;2263;54.654;9.410;2022-10-10T03:17:37;3.07;;;1.70;;
4500;SDS011;2263;54.654;9.410;2022-10-10T03:20:05;6.03;;;2.20;;
4500;SDS011;2263;54.654;9.410;2022-10-10T03:22:33;5.47;;;1.63;;
4500;SDS011;2263;54.654;9.410;2022-10-10T03:25:00;2.60;;;1.43;;
4500;SDS011;2263;54.654;9.410;2022-10-10T03:27:28;7.73;;;2.40;;
4500;SDS011;2263;54.654;9.410;2022-10-10T03:29:55;1.70;;;1.20;;
4500;SDS011;2263;54.654;9.410;2022-10-10T03:32:22;1.97;;;1.77;;
4500;SDS011;2263;54.654;9.410;2022-10-10T03:34:49;3.10;;;1.67;;
4500;SDS011;2263;54.654;9.410;2022-10-10T03:37:16;2.70;;;1.80;;
4500;SDS011;2263;54.654;9.410;2022-10-10T03:39:43;2.40;;;1.30;;
4500;SDS011;2263;54.654;9.410;2022-10-10T03:42:11;3.90;;;1.53;;
4500;SDS011;2263;54.654;9.410;2022-10-10T03:44:38;4.00;;;1.33;;
4500;SDS011;2263;54.654;9.410;2022-10-10T03:47:05;2.60;;;1.67;;
4500;SDS011;2263;54.654;9.410;2022-10-10T03:49:32;3.77;;;1.67;;
4500;SDS011;2263;54.654;9.410;2022-10-10T03:51:59;3.73;;;1.80;;
4500;SDS011;2263;54.654;9.410;2022-10-10T03:54:26;3.80;;;1.60;;
4500;SDS011;2263;54.654;9.410;2022-10-10T03:56:54;3.73;;;1.90;;
4500;SDS011;2263;54.654;9.410;2022-10-10T03:59:21;1.83;;;1.43;;
4500;SDS011;2263;54.654;9.410;2022-10-10T04:01:48;4.30;;;1.70;;
4500;SDS011;2263;54.654;9.410;2022-10-10T04:04:17;2.80;;;1.37;;
4500;SDS011;2263;54.654;9.410;2022-10-10T04:06:44;3.90;;;1.30;;
4500;SDS011;2263;54.654;9.410;2022-10-10T04:09:11;6.10;;;2.13;;
4500;SDS011;2263;54.654;9.410;2022-10-10T04:11:39;2.20;;;1.87;;
4500;SDS011;2263;54.654;9.410;2022-10-10T04:14:06;5.50;;;1.90;;
4500;SDS011;2263;54.654;9.410;2022-10-10T04:16:33;3.63;;;1.23;;
4500;SDS011;2263;54.654;9.410;2022-10-10T04:19:00;5.77;;;3.73;;
4500;SDS011;2263;54.654;9.410;2022-10-10T04:21:27;3.63;;;1.80;;
4500;SDS011;2263;54.654;9.410;2022-10-10T04:23:54;3.40;;;1.73;;
4500;SDS011;2263;54.654;9.410;2022-10-10T04:26:22;1.90;;;1.60;;
4500;SDS011;2263;54.654;9.410;2022-10-10T04:28:49;2.00;;;1.40;;
4500;SDS011;2263;54.654;9.410;2022-10-10T04:31:16;2.90;;;1.30;;
4500;SDS011;2263;54.654;9.410;2022-10-10T04:33:43;3.53;;;1.77;;
4500;SDS011;2263;54.654;9.410;2022-10-10T04:36:10;2.03;;;1.60;;
4500;SDS011;2263;54.654;9.410;2022-10-10T04:38:37;2.67;;;1.70;;
4500;SDS011;2263;54.654;9.410;2022-10-10T04:41:04;5.30;;;1.50;;
4500;SDS011;2263;54.654;9.410;2022-10-10T04:43:32;3.10;;;1.20;;
4500;SDS011;2263;54.654;9.410;2022-10-10T04:46:00;4.60;;;1.67;;
4500;SDS011;2263;54.654;9.410;2022-10-10T04:48:27;2.00;;;1.80;;
4500;SDS011;2263;54.654;9.410;2022-10-10T04:50:55;3.30;;;1.60;;
4500;SDS011;2263;54.654;9.410;2022-10-10T04:53:24;1.40;;;1.23;;
4500;SDS011;2263;54.654;9.410;2022-10-10T04:55:52;1.90;;;1.70;;
4500;SDS011;2263;54.654;9.410;2022-10-10T04:58:20;4.70;;;1.87;;
4500;SDS011;2263;54.654;9.410;2022-10-10T05:00:53;3.13;;;1.87;;
4500;SDS011;2263;54.654;9.410;2022-10-10T05:03:21;2.60;;;1.77;;
4500;SDS011;2263;54.654;9.410;2022-10-10T05:05:49;2.67;;;1.73;;
4500;SDS011;2263;54.654;9.410;2022-10-10T05:08:17;3.10;;;1.93;;
4500;SDS011;2263;54.654;9.410;2022-10-10T05:10:44;8.90;;;1.90;;
4500;SDS011;2263;54.654;9.410;2022-10-10T05:13:13;5.70;;;3.30;;
4500;SDS011;2263;54.654;9.410;2022-10-10T05:15:41;4.53;;;1.80;;
4500;SDS011;2263;54.654;9.410;2022-10-10T05:18:08;5.53;;;1.40;;
4500;SDS011;2263;54.654;9.410;2022-10-10T05:20:36;4.43;;;2.10;;
4500;SDS011;2263;54.654;9.410;2022-10-10T05:23:03;3.67;;;1.50;;
4500;SDS011;2263;54.654;9.410;2022-10-10T05:25:30;2.10;;;1.80;;
4500;SDS011;2263;54.654;9.410;2022-10-10T05:27:57;1.40;;;1.27;;
4500;SDS011;2263;54.654;9.410;2022-10-10T05:30:24;3.80;;;2.00;;
4500;SDS011;2263;54.654;9.410;2022-10-10T05:32:51;3.40;;;1.90;;
4500;SDS011;2263;54.654;9.410;2022-10-10T05:35:19;6.27;;;2.20;;
4500;SDS011;2263;54.654;9.410;2022-10-10T05:37:46;3.20;;;1.80;;
4500;SDS011;2263;54.654;9.410;2022-10-10T05:40:13;3.33;;;1.43;;
4500;SDS011;2263;54.654;9.410;2022-10-10T05:42:41;3.13;;;1.90;;
4500;SDS011;2263;54.654;9.410;2022-10-10T05:45:08;2.97;;;1.50;;
4500;SDS011;2263;54.654;9.410;2022-10-10T05:47:36;9.43;;;2.10;;
4500;SDS011;2263;54.654;9.410;2022-10-10T05:50:03;7.70;;;2.43;;
4500;SDS011;2263;54.654;9.410;2022-10-10T05:52:31;2.33;;;1.83;;
4500;SDS011;2263;54.654;9.410;2022-10-10T05:55:00;2.97;;;1.70;;
4500;SDS011;2263;54.654;9.410;2022-10-10T05:57:28;4.73;;;3.60;;
4500;SDS011;2263;54.654;9.410;2022-10-10T05:59:56;7.30;;;4.60;;
4500;SDS011;2263;54.654;9.410;2022-10-10T06:02:23;11.17;;;10.17;;
4500;SDS011;2263;54.654;9.410;2022-10-10T06:04:50;13.37;;;11.47;;
4500;SDS011;2263;54.654;9.410;2022-10-10T06:07:17;11.83;;;10.93;;
4500;SDS011;2263;54.654;9.410;2022-10-10T06:09:44;10.67;;;9.90;;
4500;SDS011;2263;54.654;9.410;2022-10-10T06:12:12;10.13;;;9.13;;
4500;SDS011;2263;54.654;9.410;2022-10-10T06:14:39;7.97;;;7.27;;
4500;SDS011;2263;54.654;9.410;2022-10-10T06:17:06;9.23;;;8.43;;
4500;SDS011;2263;54.654;9.410;2022-10-10T06:19:33;8.03;;;7.43;;
4500;SDS011;2263;54.654;9.410;2022-10-10T06:22:01;8.53;;;6.73;;
4500;SDS011;2263;54.654;9.410;2022-10-10T06:24:28;7.00;;;6.47;;
4500;SDS011;2263;54.654;9.410;2022-10-10T06:26:55;6.10;;;5.67;;
4500;SDS011;2263;54.654;9.410;2022-10-10T06:29:22;5.93;;;5.60;;
4500;SDS011;2263;54.654;9.410;2022-10-10T06:31:49;5.90;;;5.40;;
4500;SDS011;2263;54.654;9.410;2022-10-10T06:34:16;5.77;;;5.30;;
4500;SDS011;2263;54.654;9.410;2022-10-10T06:36:44;6.30;;;5.90;;
4500;SDS011;2263;54.654;9.410;2022-10-10T06:39:11;5.07;;;4.57;;
4500;SDS011;2263;54.654;9.410;2022-10-10T06:41:38;4.77;;;4.47;;
4500;SDS011;2263;54.654;9.410;2022-10-10T06:44:05;4.17;;;3.97;;
4500;SDS011;2263;54.654;9.410;2022-10-10T06:46:33;8.20;;;4.60;;
4500;SDS011;2263;54.654;9.410;2022-10-10T06:49:03;4.13;;;3.73;;
4500;SDS011;2263;54.654;9.410;2022-10-10T06:51:30;4.10;;;3.80;;
4500;SDS011;2263;54.654;9.410;2022-10-10T06:53:58;4.70;;;4.10;;
4500;SDS011;2263;54.654;9.410;2022-10-10T06:56:25;4.33;;;3.70;;
4500;SDS011;2263;54.654;9.410;2022-10-10T06:58:53;4.10;;;3.80;;
4500;SDS011;2263;54.654;9.410;2022-10-10T07:01:21;5.93;;;5.50;;
4500;SDS011;2263;54.654;9.410;2022-10-10T07:03:50;4.10;;;3.07;;
4500;SDS011;2263;54.654;9.410;2022-10-10T07:06:18;3.40;;;3.10;;
4500;SDS011;2263;54.654;9.410;2022-10-10T07:08:45;8.93;;;3.90;;
4500;SDS011;2263;54.654;9.410;2022-10-10T07:11:13;4.27;;;3.97;;
4500;SDS011;2263;54.654;9.410;2022-10-10T07:13:40;3.23;;;2.93;;
4500;SDS011;2263;54.654;9.410;2022-10-10T07:16:08;7.57;;;2.67;;
4500;SDS011;2263;54.654;9.410;2022-10-10T07:18:36;10.37;;;3.63;;
4500;SDS011;2263;54.654;9.410;2022-10-10T07:21:04;3.50;;;3.23;;
4500;SDS011;2263;54.654;9.410;2022-10-10T07:23:31;3.30;;;3.00;;
4500;SDS011;2263;54.654;9.410;2022-10-10T07:26:06;9.93;;;4.10;;
4500;SDS011;2263;54.654;9.410;2022-10-10T07:28:36;3.40;;;2.97;;
4500;SDS011;2263;54.654;9.410;2022-10-10T07:31:05;2.80;;;2.50;;
4500;SDS011;2263;54.654;9.410;2022-10-10T07:33:35;2.83;;;2.40;;
4500;SDS011;2263;54.654;9.410;2022-10-10T07:36:04;5.40;;;2.70;;
4500;SDS011;2263;54.654;9.410;2022-10-10T07:38:32;4.57;;;3.10;;
4500;SDS011;2263;54.654;9.410;2022-10-10T07:41:03;4.10;;;2.47;;
4500;SDS011;2263;54.654;9.410;2022-10-10T07:43:34;3.87;;;2.87;;
4500;SDS011;2263;54.654;9.410;2022-10-10T07:46:03;4.13;;;2.53;;
4500;SDS011;2263;54.654;9.410;2022-10-10T07:48:36;7.53;;;2.97;;
4500;SDS011;2263;54.654;9.410;2022-10-10T07:51:06;7.03;;;2.80;;
4500;SDS011;2263;54.654;9.410;2022-10-10T07:53:34;4.60;;;2.63;;
4500;SDS011;2263;54.654;9.410;2022-10-10T07:56:08;3.27;;;2.33;;
4500;SDS011;2263;54.654;9.410;2022-10-10T07:58:36;3.67;;;2.87;;
4500;SDS011;2263;54.654;9.410;2022-10-10T08:01:08;5.33;;;2.40;;
4500;SDS011;2263;54.654;9.410;2022-10-10T08:03:37;2.93;;;2.30;;
4500;SDS011;2263;54.654;9.410;2022-10-10T08:06:06;4.80;;;2.50;;
4500;SDS011;2263;54.654;9.410;2022-10-10T08:08:38;1.80;;;1.70;;
4500;SDS011;2263;54.654;9.410;2022-10-10T08:11:16;4.93;;;2.37;;
4500;SDS011;2263;54.654;9.410;2022-10-10T08:13:44;3.20;;;2.33;;
4500;SDS011;2263;54.654;9.410;2022-10-10T08:16:11;3.30;;;2.80;;
4500;SDS011;2263;54.654;9.410;2022-10-10T08:18:38;2.53;;;2.33;;
4500;SDS011;2263;54.654;9.410;2022-10-10T08:21:06;2.70;;;2.40;;
4500;SDS011;2263;54.654;9.410;2022-10-10T08:23:35;2.40;;;2.20;;
4500;SDS011;2263;54.654;9.410;2022-10-10T08:26:04;4.17;;;2.40;;
4500;SDS011;2263;54.654;9.410;2022-10-10T08:28:36;5.40;;;2.60;;
4500;SDS011;2263;54.654;9.410;2022-10-10T08:31:07;4.70;;;2.80;;
4500;SDS011;2263;54.654;9.410;2022-10-10T08:33:36;2.60;;;2.20;;
4500;SDS011;2263;54.654;9.410;2022-10-10T08:36:10;2.70;;;2.50;;
4500;SDS011;2263;54.654;9.410;2022-10-10T08:38:54;3.00;;;2.60;;
4500;SDS011;2263;54.654;9.410;2022-10-10T08:41:31;6.57;;;3.37;;
4500;SDS011;2263;54.654;9.410;2022-10-10T08:44:16;3.93;;;2.50;;
4500;SDS011;2263;54.654;9.410;2022-10-10T08:46:55;3.50;;;2.27;;
4500;SDS011;2263;54.654;9.410;2022-10-10T08:49:56;2.93;;;2.30;;
4500;SDS011;2263;54.654;9.410;2022-10-10T08:55:46;4.40;;;4.00;;
4500;SDS011;2263;54.654;9.410;2022-10-10T09:00:38;3.23;;;2.90;;
4500;SDS011;2263;54.654;9.410;2022-10-10T09:03:16;6.47;;;2.50;;
4500;SDS011;2263;54.654;9.410;2022-10-10T09:08:50;3.07;;;2.50;;
4500;SDS011;2263;54.654;9.410;2022-10-10T09:17:00;3.40;;;2.63;;
4500;SDS011;2263;54.654;9.410;2022-10-10T09:22:17;4.73;;;2.80;;
4500;SDS011;2263;54.654;9.410;2022-10-10T09:25:31;3.63;;;2.80;;
4500;SDS011;2263;54.654;9.410;2022-10-10T09:27:45;3.10;;;2.80;;
4500;SDS011;2263;54.654;9.410;2022-10-10T09:30:20;4.87;;;2.50;;
4500;SDS011;2263;54.654;9.410;2022-10-10T09:32:49;2.67;;;2.47;;
4500;SDS011;2263;54.654;9.410;2022-10-10T09:35:28;3.60;;;3.30;;
4500;SDS011;2263;54.654;9.410;2022-10-10T09:40:51;10.30;;;2.87;;
4500;SDS011;2263;54.654;9.410;2022-10-10T09:43:28;5.90;;;2.47;;
4500;SDS011;2263;54.654;9.410;2022-10-10T09:45:57;4.30;;;3.00;;
4500;SDS011;2263;54.654;9.410;2022-10-10T09:48:31;3.47;;;2.97;;
4500;SDS011;2263;54.654;9.410;2022-10-10T09:51:02;3.10;;;2.80;;
4500;SDS011;2263;54.654;9.410;2022-10-10T09:53:32;6.07;;;3.27;;
4500;SDS011;2263;54.654;9.410;2022-10-10T09:55:59;3.80;;;2.40;;
4500;SDS011;2263;54.654;9.410;2022-10-10T09:58:54;4.20;;;3.00;;
4500;SDS011;2263;54.654;9.410;2022-10-10T10:01:26;3.47;;;3.17;;
4500;SDS011;2263;54.654;9.410;2022-10-10T10:04:16;3.03;;;2.57;;
4500;SDS011;2263;54.654;9.410;2022-10-10T10:09:50;3.13;;;2.90;;
4500;SDS011;2263;54.654;9.410;2022-10-10T10:12:24;3.40;;;2.67;;
4500;SDS011;2263;54.654;9.410;2022-10-10T10:15:04;4.43;;;2.80;;
4500;SDS011;2263;54.654;9.410;2022-10-10T10:17:42;11.63;;;3.43;;
4500;SDS011;2263;54.654;9.410;2022-10-10T10:22:55;3.13;;;2.87;;
4500;SDS011;2263;54.654;9.410;2022-10-10T10:30:37;5.57;;;3.33;;
4500;SDS011;2263;54.654;9.410;2022-10-10T10:33:13;4.67;;;3.20;;
4500;SDS011;2263;54.654;9.410;2022-10-10T10:35:43;2.73;;;2.53;;
4500;SDS011;2263;54.654;9.410;2022-10-10T10:38:30;2.77;;;2.47;;
4500;SDS011;2263;54.654;9.410;2022-10-10T10:44:34;3.63;;;3.10;;
4500;SDS011;2263;54.654;9.410;2022-10-10T11:01:25;4.53;;;3.00;;
4500;SDS011;2263;54.654;9.410;2022-10-10T11:07:29;3.90;;;3.10;;
4500;SDS011;2263;54.654;9.410;2022-10-10T11:10:10;4.77;;;3.37;;
4500;SDS011;2263;54.654;9.410;2022-10-10T11:15:35;6.27;;;2.93;;
4500;SDS011;2263;54.654;9.410;2022-10-10T11:23:54;3.83;;;2.80;;
4500;SDS011;2263;54.654;9.410;2022-10-10T11:26:36;8.50;;;3.20;;
4500;SDS011;2263;54.654;9.410;2022-10-10T11:29:17;4.07;;;2.70;;
4500;SDS011;2263;54.654;9.410;2022-10-10T11:34:39;4.20;;;3.40;;
4500;SDS011;2263;54.654;9.410;2022-10-10T11:37:12;3.40;;;3.10;;
4500;SDS011;2263;54.654;9.410;2022-10-10T11:39:50;3.80;;;3.30;;
4500;SDS011;2263;54.654;9.410;2022-10-10T11:42:26;4.80;;;3.60;;
4500;SDS011;2263;54.654;9.410;2022-10-10T11:45:01;3.20;;;3.00;;
4500;SDS011;2263;54.654;9.410;2022-10-10T12:00:33;3.40;;;3.20;;
4500;SDS011;2263;54.654;9.410;2022-10-10T12:03:15;7.70;;;3.17;;
4500;SDS011;2263;54.654;9.410;2022-10-10T12:05:50;4.57;;;4.10;;
4500;SDS011;2263;54.654;9.410;2022-10-10T12:08:27;4.80;;;3.33;;
4500;SDS011;2263;54.654;9.410;2022-10-10T12:13:53;2.70;;;2.50;;
4500;SDS011;2263;54.654;9.410;2022-10-10T12:16:24;6.27;;;3.03;;
4500;SDS011;2263;54.654;9.410;2022-10-10T12:19:00;4.30;;;3.40;;
4500;SDS011;2263;54.654;9.410;2022-10-10T12:21:30;6.73;;;4.47;;
4500;SDS011;2263;54.654;9.410;2022-10-10T12:24:15;8.63;;;4.03;;
4500;SDS011;2263;54.654;9.410;2022-10-10T12:35:02;5.00;;;3.97;;
4500;SDS011;2263;54.654;9.410;2022-10-10T12:37:33;6.03;;;4.90;;
4500;SDS011;2263;54.654;9.410;2022-10-10T12:42:32;4.00;;;3.37;;
4500;SDS011;2263;54.654;9.410;2022-10-10T12:45:38;5.10;;;3.77;;
4500;SDS011;2263;54.654;9.410;2022-10-10T12:47:56;3.57;;;2.97;;
4500;SDS011;2263;54.654;9.410;2022-10-10T12:50:38;6.73;;;4.10;;
4500;SDS011;2263;54.654;9.410;2022-10-10T12:53:17;3.50;;;3.10;;
4500;SDS011;2263;54.654;9.410;2022-10-10T12:55:46;5.07;;;4.57;;
4500;SDS011;2263;54.654;9.410;2022-10-10T12:58:26;4.03;;;3.63;;
4500;SDS011;2263;54.654;9.410;2022-10-10T13:01:01;6.63;;;4.40;;
4500;SDS011;2263;54.654;9.410;2022-10-10T13:03:37;5.77;;;3.80;;
4500;SDS011;2263;54.654;9.410;2022-10-10T13:08:58;6.70;;;3.40;;
4500;SDS011;2263;54.654;9.410;2022-10-10T13:11:27;4.73;;;3.63;;
4500;SDS011;2263;54.654;9.410;2022-10-10T13:13:55;4.20;;;3.73;;
4500;SDS011;2263;54.654;9.410;2022-10-10T13:16:24;7.13;;;4.30;;
4500;SDS011;2263;54.654;9.410;2022-10-10T13:18:59;5.53;;;4.40;;
4500;SDS011;2263;54.654;9.410;2022-10-10T13:21:30;4.80;;;4.40;;
4500;SDS011;2263;54.654;9.410;2022-10-10T13:24:01;4.10;;;3.80;;
4500;SDS011;2263;54.654;9.410;2022-10-10T13:26:31;5.80;;;4.80;;
4500;SDS011;2263;54.654;9.410;2022-10-10T13:29:04;6.67;;;4.70;;
4500;SDS011;2263;54.654;9.410;2022-10-10T13:31:53;7.70;;;5.50;;
4500;SDS011;2263;54.654;9.410;2022-10-10T13:34:24;5.13;;;4.60;;
4500;SDS011;2263;54.654;9.410;2022-10-10T13:37:01;5.80;;;4.23;;
4500;SDS011;2263;54.654;9.410;2022-10-10T13:39:30;8.00;;;4.50;;
4500;SDS011;2263;54.654;9.410;2022-10-10T13:42:01;4.80;;;4.37;;
4500;SDS011;2263;54.654;9.410;2022-10-10T13:44:30;6.80;;;5.50;;
4500;SDS011;2263;54.654;9.410;2022-10-10T13:50:17;7.00;;;4.73;;
4500;SDS011;2263;54.654;9.410;2022-10-10T13:52:47;6.80;;;4.87;;
4500;SDS011;2263;54.654;9.410;2022-10-10T13:55:22;8.13;;;5.07;;
4500;SDS011;2263;54.654;9.410;2022-10-10T13:57:54;5.93;;;4.80;;
4500;SDS011;2263;54.654;9.410;2022-10-10T14:00:27;4.37;;;3.87;;
4500;SDS011;2263;54.654;9.410;2022-10-10T14:02:58;6.87;;;4.90;;
4500;SDS011;2263;54.654;9.410;2022-10-10T14:05:26;7.40;;;5.93;;
4500;SDS011;2263;54.654;9.410;2022-10-10T14:07:56;11.60;;;6.03;;
4500;SDS011;2263;54.654;9.410;2022-10-10T14:10:25;18.30;;;6.13;;
4500;SDS011;2263;54.654;9.410;2022-10-10T14:12:55;8.70;;;5.77;;
4500;SDS011;2263;54.654;9.410;2022-10-10T14:20:48;10.43;;;6.60;;
4500;SDS011;2263;54.654;9.410;2022-10-10T14:23:16;6.40;;;5.80;;
4500;SDS011;2263;54.654;9.410;2022-10-10T14:25:44;7.03;;;6.10;;
4500;SDS011;2263;54.654;9.410;2022-10-10T14:28:17;7.50;;;6.37;;
4500;SDS011;2263;54.654;9.410;2022-10-10T14:30:46;10.63;;;8.40;;
4500;SDS011;2263;54.654;9.410;2022-10-10T14:33:14;8.40;;;6.00;;
4500;SDS011;2263;54.654;9.410;2022-10-10T14:35:44;10.93;;;7.73;;
4500;SDS011;2263;54.654;9.410;2022-10-10T14:38:12;8.50;;;6.47;;
4500;SDS011;2263;54.654;9.410;2022-10-10T14:40:41;8.10;;;5.80;;
4500;SDS011;2263;54.654;9.410;2022-10-10T14:43:11;7.70;;;6.60;;
4500;SDS011;2263;54.654;9.410;2022-10-10T14:45:38;9.13;;;5.83;;
4500;SDS011;2263;54.654;9.410;2022-10-10T14:48:06;7.80;;;6.70;;
4500;SDS011;2263;54.654;9.410;2022-10-10T14:50:34;7.63;;;6.30;;
4500;SDS011;2263;54.654;9.410;2022-10-10T14:53:05;9.60;;;6.50;;
4500;SDS011;2263;54.654;9.410;2022-10-10T14:55:33;7.10;;;6.40;;
4500;SDS011;2263;54.654;9.410;2022-10-10T14:58:00;7.20;;;6.50;;
4500;SDS011;2263;54.654;9.410;2022-10-10T15:00:27;11.17;;;6.90;;
4500;SDS011;2263;54.654;9.410;2022-10-10T15:02:54;16.73;;;8.57;;
4500;SDS011;2263;54.654;9.410;2022-10-10T15:05:21;13.10;;;8.20;;
4500;SDS011;2263;54.654;9.410;2022-10-10T15:07:48;8.33;;;7.50;;
4500;SDS011;2263;54.654;9.410;2022-10-10T15:10:19;7.30;;;6.60;;
4500;SDS011;2263;54.654;9.410;2022-10-10T15:12:59;13.20;;;8.17;;
4500;SDS011;2263;54.654;9.410;2022-10-10T15:15:27;9.33;;;7.27;;
4500;SDS011;2263;54.654;9.410;2022-10-10T15:17:55;15.70;;;10.87;;
4500;SDS011;2263;54.654;9.410;2022-10-10T15:20:26;13.87;;;9.50;;
4500;SDS011;2263;54.654;9.410;2022-10-10T15:22:58;9.97;;;8.10;;
4500;SDS011;2263;54.654;9.410;2022-10-10T15:25:27;10.60;;;8.63;;
4500;SDS011;2263;54.654;9.410;2022-10-10T15:28:00;9.80;;;7.80;;
4500;SDS011;2263;54.654;9.410;2022-10-10T15:30:28;17.53;;;8.90;;
4500;SDS011;2263;54.654;9.410;2022-10-10T15:32:56;12.93;;;8.03;;
4500;SDS011;2263;54.654;9.410;2022-10-10T15:35:23;11.63;;;8.57;;
4500;SDS011;2263;54.654;9.410;2022-10-10T15:37:51;9.37;;;7.33;;
4500;SDS011;2263;54.654;9.410;2022-10-10T15:40:20;12.87;;;8.40;;
4500;SDS011;2263;54.654;9.410;2022-10-10T15:42:48;10.07;;;8.20;;
4500;SDS011;2263;54.654;9.410;2022-10-10T15:45:16;15.80;;;6.33;;
4500;SDS011;2263;54.654;9.410;2022-10-10T15:48:04;14.23;;;7.80;;
4500;SDS011;2263;54.654;9.410;2022-10-10T15:50:31;10.87;;;8.87;;
4500;SDS011;2263;54.654;9.410;2022-10-10T15:53:04;7.13;;;6.43;;
4500;SDS011;2263;54.654;9.410;2022-10-10T15:55:31;10.57;;;7.23;;
4500;SDS011;2263;54.654;9.410;2022-10-10T15:57:59;11.17;;;7.47;;
4500;SDS011;2263;54.654;9.410;2022-10-10T16:00:28;11.67;;;7.63;;
4500;SDS011;2263;54.654;9.410;2022-10-10T16:02:56;17.33;;;8.73;;
4500;SDS011;2263;54.654;9.410;2022-10-10T16:05:23;8.23;;;6.40;;
4500;SDS011;2263;54.654;9.410;2022-10-10T16:07:50;11.80;;;6.17;;
4500;SDS011;2263;54.654;9.410;2022-10-10T16:10:17;12.47;;;6.17;;
4500;SDS011;2263;54.654;9.410;2022-10-10T16:12:45;5.90;;;4.60;;
4500;SDS011;2263;54.654;9.410;2022-10-10T16:15:12;8.40;;;5.87;;
4500;SDS011;2263;54.654;9.410;2022-10-10T16:17:39;5.60;;;4.20;;
4500;SDS011;2263;54.654;9.410;2022-10-10T16:20:06;4.30;;;3.90;;
4500;SDS011;2263;54.654;9.410;2022-10-10T16:22:34;5.03;;;4.53;;
4500;SDS011;2263;54.654;9.410;2022-10-10T16:25:01;3.10;;;2.90;;
4500;SDS011;2263;54.654;9.410;2022-10-10T16:27:47;4.33;;;2.97;;
4500;SDS011;2263;54.654;9.410;2022-10-10T16:30:14;2.40;;;1.87;;
4500;SDS011;2263;54.654;9.410;2022-10-10T16:32:42;3.60;;;2.03;;
4500;SDS011;2263;54.654;9.410;2022-10-10T16:35:12;6.83;;;2.63;;
4500;SDS011;2263;54.654;9.410;2022-10-10T16:37:39;3.50;;;1.63;;
4500;SDS011;2263;54.654;9.410;2022-10-10T16:40:06;5.83;;;2.50;;
4500;SDS011;2263;54.654;9.410;2022-10-10T16:42:34;6.33;;;1.67;;
4500;SDS011;2263;54.654;9.410;2022-10-10T16:45:02;2.30;;;1.53;;
4500;SDS011;2263;54.654;9.410;2022-10-10T16:47:29;7.47;;;1.30;;
4500;SDS011;2263;54.654;9.410;2022-10-10T16:49:56;4.13;;;1.73;;
4500;SDS011;2263;54.654;9.410;2022-10-10T16:52:23;3.47;;;1.37;;
4500;SDS011;2263;54.654;9.410;2022-10-10T16:54:53;1.80;;;1.60;;
4500;SDS011;2263;54.654;9.410;2022-10-10T16:57:20;7.10;;;1.60;;
4500;SDS011;2263;54.654;9.410;2022-10-10T16:59:49;5.67;;;1.60;;
4500;SDS011;2263;54.654;9.410;2022-10-10T17:02:16;3.73;;;1.43;;
4500;SDS011;2263;54.654;9.410;2022-10-10T17:04:43;1.93;;;1.03;;
4500;SDS011;2263;54.654;9.410;2022-10-10T17:07:10;9.63;;;2.13;;
4500;SDS011;2263;54.654;9.410;2022-10-10T17:09:38;4.10;;;1.20;;
4500;SDS011;2263;54.654;9.410;2022-10-10T17:12:05;3.23;;;1.30;;
4500;SDS011;2263;54.654;9.410;2022-10-10T17:14:32;9.63;;;2.00;;
4500;SDS011;2263;54.654;9.410;2022-10-10T17:16:59;11.33;;;2.13;;
4500;SDS011;2263;54.654;9.410;2022-10-10T17:19:41;3.93;;;1.60;;
4500;SDS011;2263;54.654;9.410;2022-10-10T17:22:09;7.33;;;4.37;;
4500;SDS011;2263;54.654;9.410;2022-10-10T17:24:36;11.10;;;4.83;;
4500;SDS011;2263;54.654;9.410;2022-10-10T17:27:03;14.27;;;3.40;;
4500;SDS011;2263;54.654;9.410;2022-10-10T17:29:31;7.37;;;4.43;;
4500;SDS011;2263;54.654;9.410;2022-10-10T17:31:58;6.90;;;2.80;;
4500;SDS011;2263;54.654;9.410;2022-10-10T17:34:31;5.80;;;3.33;;
4500;SDS011;2263;54.654;9.410;2022-10-10T17:36:59;9.90;;;2.87;;
4500;SDS011;2263;54.654;9.410;2022-10-10T17:39:28;5.57;;;2.43;;
4500;SDS011;2263;54.654;9.410;2022-10-10T17:41:55;5.80;;;1.70;;
4500;SDS011;2263;54.654;9.410;2022-10-10T17:44:22;3.40;;;1.60;;